createdAt,value
2023-08-15T00:02:26.455Z,101097.88
2023-08-15T00:04:54.274Z,101097.03
2023-08-15T00:07:22.424Z,101092.53
2023-08-15T00:09:51.721Z,101092.78
2023-08-15T00:12:19.415Z,101099.22
2023-08-15T00:14:47.365Z,101102.31
2023-08-15T00:17:15.098Z,101095.25
2023-08-15T00:19:42.946Z,101087.91
2023-08-15T00:22:10.855Z,101089.88
2023-08-15T00:24:38.992Z,101091.22
2023-08-15T00:27:08.357Z,101082.56
2023-08-15T00:29:36.590Z,101087.56
2023-08-15T00:32:04.727Z,101081.34
2023-08-15T00:34:32.737Z,101084.44
2023-08-15T00:37:00.478Z,101079.91
2023-08-15T00:39:28.221Z,101080.19
2023-08-15T00:41:57.280Z,101086.88
2023-08-15T00:44:26.490Z,101088.81
2023-08-15T00:46:54.311Z,101089.94
2023-08-15T00:49:22.443Z,101084.56
2023-08-15T00:51:51.471Z,101069.69
2023-08-15T00:54:19.987Z,101071.38
2023-08-15T00:56:47.837Z,101067.97
2023-08-15T00:59:16.190Z,101067.97
2023-08-15T01:01:45.623Z,101064.34
2023-08-15T01:04:14.266Z,101059.56
2023-08-15T01:06:42.015Z,101056.75
2023-08-15T01:09:09.906Z,101055.06
2023-08-15T01:11:48.578Z,101058.13
2023-08-15T01:14:20.803Z,101060.69
2023-08-15T01:16:52.829Z,101051.44
2023-08-15T01:19:32.073Z,101053.63
2023-08-15T01:22:01.168Z,101051.94
2023-08-15T01:24:32.057Z,101061.19
2023-08-15T01:26:59.800Z,101049.97
2023-08-15T01:29:27.589Z,101049.13
2023-08-15T01:32:02.724Z,101049.13
2023-08-15T01:34:36.783Z,101043.53
2023-08-15T01:37:09.694Z,101043.53
2023-08-15T01:39:40.431Z,101050.22
2023-08-15T01:42:10.842Z,101040.09
2023-08-15T01:44:39.674Z,101040.09
2023-08-15T01:47:08.694Z,101030.84
2023-08-15T01:49:36.896Z,101028.06
2023-08-15T01:52:05.123Z,101026.31
2023-08-15T01:54:33.038Z,101037.53
2023-08-15T01:57:02.146Z,101038.66
2023-08-15T01:59:30.056Z,101024.88
2023-08-15T02:01:59.085Z,101024.03
2023-08-15T02:04:26.867Z,101026.84
2023-08-15T02:06:54.626Z,101022.34
2023-08-15T02:09:22.431Z,101017.56
2023-08-15T02:11:50.163Z,101024.31
2023-08-15T02:14:19.257Z,101012.22
2023-08-15T02:16:47.053Z,101013.09
2023-08-15T02:19:14.857Z,101015.00
2023-08-15T02:21:42.603Z,101009.41
2023-08-15T02:24:10.525Z,101003.81
2023-08-15T02:26:38.678Z,101005.53
2023-08-15T02:29:06.755Z,101002.72
2023-08-15T02:31:36.570Z,101011.13
2023-08-15T02:34:05.393Z,101004.91
2023-08-15T02:36:33.193Z,101012.47
2023-08-15T02:39:00.887Z,101009.41
2023-08-15T02:41:28.618Z,101004.91
2023-08-15T02:43:56.472Z,101003.22
2023-08-15T02:46:26.314Z,101007.09
2023-08-15T02:48:55.579Z,101016.13
2023-08-15T02:51:23.479Z,101007.97
2023-08-15T02:53:51.294Z,101011.63
2023-08-15T02:56:19.102Z,101009.06
2023-08-15T02:58:47.033Z,101002.34
2023-08-15T03:01:15.046Z,101003.47
2023-08-15T03:03:42.873Z,101005.41
2023-08-15T03:06:11.967Z,100999.81
2023-08-15T03:08:39.785Z,101021.13
2023-08-15T03:11:07.826Z,101029.53
2023-08-15T03:13:35.612Z,101018.59
2023-08-15T03:16:03.796Z,101035.66
2023-08-15T03:18:33.851Z,101028.94
2023-08-15T03:21:03.740Z,101017.47
2023-08-15T03:23:34.003Z,101036.50
2023-08-15T03:26:03.212Z,101023.31
2023-08-15T03:28:35.569Z,101039.31
2023-08-15T03:31:07.387Z,101042.38
2023-08-15T03:33:39.424Z,101055.50
2023-08-15T03:36:08.895Z,101072.34
2023-08-15T03:38:39.432Z,101069.78
2023-08-15T03:41:08.739Z,101066.16
2023-08-15T03:43:37.878Z,101058.81
2023-08-15T03:46:07.531Z,101051.25
2023-08-15T03:48:37.678Z,101058.81
2023-08-15T03:51:06.606Z,101049.81
2023-08-15T03:53:34.421Z,101048.09
2023-08-15T03:56:06.223Z,101044.47
2023-08-15T03:58:34.568Z,101046.41
2023-08-15T04:01:03.512Z,101030.69
2023-08-15T04:03:32.647Z,101034.59
2023-08-15T04:06:00.681Z,101033.75
2023-08-15T04:08:28.472Z,101032.03
2023-08-15T04:10:56.481Z,101029.50
2023-08-15T04:13:25.734Z,101038.75
2023-08-15T04:15:53.566Z,101033.16
2023-08-15T04:18:21.410Z,101037.63
2023-08-15T04:20:49.208Z,101030.94
2023-08-15T04:23:16.955Z,101026.44
2023-08-15T04:25:45.148Z,101014.97
2023-08-15T04:28:13.069Z,101003.78
2023-08-15T04:30:42.559Z,101007.19
2023-08-15T04:33:12.570Z,101013.63
2023-08-15T04:35:40.702Z,101016.44
2023-08-15T04:38:09.118Z,101022.88
2023-08-15T04:40:41.404Z,101020.06
2023-08-15T04:43:10.830Z,101019.47
2023-08-15T04:45:42.107Z,101024.22
2023-08-15T04:48:14.170Z,101032.03
2023-08-15T04:50:42.361Z,101047.16
2023-08-15T04:53:10.274Z,101048.25
2023-08-15T04:55:38.885Z,101056.66
2023-08-15T04:58:10.329Z,101058.59
2023-08-15T05:00:39.157Z,101050.47
2023-08-15T05:03:07.868Z,101050.19
2023-08-15T05:05:38.067Z,101051.31
2023-08-15T05:08:07.783Z,101067.63
2023-08-15T05:10:35.647Z,101068.47
2023-08-15T05:13:04.352Z,101068.47
2023-08-15T05:15:32.677Z,101074.69
2023-08-15T05:18:01.019Z,101069.06
2023-08-15T05:20:28.976Z,101076.13
2023-08-15T05:22:58.107Z,101096.38
2023-08-15T05:25:26.784Z,101106.47
2023-08-15T05:27:55.063Z,101100.88
2023-08-15T05:30:22.835Z,101101.25
2023-08-15T05:32:51.326Z,101107.19
2023-08-15T05:35:19.551Z,101127.78
2023-08-15T05:37:47.461Z,101129.34
2023-08-15T05:40:17.290Z,101136.72
2023-08-15T05:42:45.129Z,101134.31
2023-08-15T05:45:12.881Z,101131.34
2023-08-15T05:47:40.717Z,101138.25
2023-08-15T05:50:10.043Z,101145.53
2023-08-15T05:52:37.950Z,101153.03
2023-08-15T05:55:07.851Z,101153.38
2023-08-15T05:57:37.819Z,101164.47
2023-08-15T06:00:07.631Z,101160.47
2023-08-15T06:02:41.278Z,101167.91
2023-08-15T06:05:09.659Z,101161.31
2023-08-15T06:07:37.608Z,101166.28
2023-08-15T06:10:06.449Z,101175.34
2023-08-15T06:12:34.329Z,101173.81
2023-08-15T06:15:03.942Z,101180.81
2023-08-15T06:17:31.815Z,101175.19
2023-08-15T06:19:59.633Z,101181.75
2023-08-15T06:22:27.404Z,101184.44
2023-08-15T06:24:55.345Z,101192.56
2023-08-15T06:27:23.310Z,101199.69
2023-08-15T06:29:51.359Z,101203.34
2023-08-15T06:32:28.170Z,101196.31
2023-08-15T06:34:56.045Z,101200.06
2023-08-15T06:37:24.644Z,101200.00
2023-08-15T06:39:52.415Z,101200.34
2023-08-15T06:42:20.266Z,101197.59
2023-08-15T06:44:48.211Z,101203.19
2023-08-15T06:47:16.222Z,101202.75
2023-08-15T06:49:45.354Z,101205.03
2023-08-15T06:52:13.112Z,101208.81
2023-08-15T06:54:40.945Z,101222.69
2023-08-15T06:57:08.995Z,101217.28
2023-08-15T06:59:37.191Z,101225.25
2023-08-15T07:02:07.085Z,101230.78
2023-08-15T07:04:37.891Z,101233.50
2023-08-15T07:07:07.799Z,101244.97
2023-08-15T07:09:36.992Z,101244.69
2023-08-15T07:12:06.212Z,101240.66
2023-08-15T07:14:34.560Z,101242.56
2023-08-15T07:17:02.781Z,101246.38
2023-08-15T07:19:30.614Z,101256.31
2023-08-15T07:21:58.367Z,101260.81
2023-08-15T07:24:27.670Z,101259.88
2023-08-15T07:26:55.569Z,101260.25
2023-08-15T07:29:23.432Z,101263.31
2023-08-15T07:31:52.195Z,101253.56
2023-08-15T07:34:20.139Z,101264.94
2023-08-15T07:36:47.914Z,101267.06
2023-08-15T07:39:15.817Z,101273.22
2023-08-15T07:41:44.881Z,101279.75
2023-08-15T07:44:12.764Z,101277.06
2023-08-15T07:46:41.011Z,101281.09
2023-08-15T07:49:09.597Z,101285.13
2023-08-15T07:51:37.877Z,101276.78
2023-08-15T07:54:06.671Z,101275.56
2023-08-15T07:56:35.189Z,101284.81
2023-08-15T07:59:05.363Z,101280.94
2023-08-15T08:01:33.576Z,101279.13
2023-08-15T08:04:02.664Z,101285.09
2023-08-15T08:09:01.531Z,101293.09
2023-08-15T08:11:29.275Z,101283.75
2023-08-15T08:13:57.161Z,101297.25
2023-08-15T08:16:26.364Z,101292.84
2023-08-15T08:18:54.220Z,101287.16
2023-08-15T08:21:22.166Z,101289.91
2023-08-15T08:23:49.960Z,101296.53
2023-08-15T08:26:17.783Z,101296.88
2023-08-15T08:28:45.538Z,101301.50
2023-08-15T08:31:13.338Z,101300.47
2023-08-15T08:33:42.524Z,101310.78
2023-08-15T08:36:10.643Z,101313.69
2023-08-15T08:38:39.119Z,101307.81
2023-08-15T08:41:07.091Z,101314.34
2023-08-15T08:43:35.102Z,101322.25
2023-08-15T08:46:06.645Z,101328.50
2023-08-15T08:48:36.381Z,101333.00
2023-08-15T08:51:07.959Z,101331.63
2023-08-15T08:53:36.107Z,101333.03
2023-08-15T08:56:04.071Z,101329.63
2023-08-15T08:58:32.843Z,101327.38
2023-08-15T09:01:03.629Z,101336.38
2023-08-15T09:03:31.941Z,101317.69
2023-08-15T09:06:00.027Z,101320.78
2023-08-15T09:08:29.367Z,101311.44
2023-08-15T09:10:57.212Z,101311.41
2023-08-15T09:13:25.389Z,101308.56
2023-08-15T09:15:57.580Z,101304.59
2023-08-15T09:18:25.776Z,101314.22
2023-08-15T09:20:53.559Z,101314.78
2023-08-15T09:23:21.554Z,101324.97
2023-08-15T09:25:54.867Z,101326.06
2023-08-15T09:28:24.009Z,101327.16
2023-08-15T09:30:54.429Z,101336.19
2023-08-15T09:33:23.365Z,101330.47
2023-08-15T09:35:58.697Z,101336.63
2023-08-15T09:38:28.050Z,101341.75
2023-08-15T09:40:57.581Z,101350.44
2023-08-15T09:43:25.664Z,101350.75
2023-08-15T09:45:54.463Z,101359.22
2023-08-15T09:48:22.577Z,101347.03
2023-08-15T09:50:50.845Z,101357.19
2023-08-15T09:53:18.753Z,101356.91
2023-08-15T09:55:46.738Z,101353.84
2023-08-15T09:58:17.856Z,101349.34
2023-08-15T10:00:49.979Z,101362.66
2023-08-15T10:03:21.143Z,101351.03
2023-08-15T10:05:55.394Z,101356.38
2023-08-15T10:08:24.660Z,101359.75
2023-08-15T10:10:54.187Z,101371.34
2023-08-15T10:13:27.923Z,101371.03
2023-08-15T10:15:56.809Z,101363.47
2023-08-15T10:18:25.908Z,101376.22
2023-08-15T10:20:55.176Z,101380.19
2023-08-15T10:23:26.408Z,101384.47
2023-08-15T10:25:55.241Z,101381.97
2023-08-15T10:28:24.637Z,101384.81
2023-08-15T10:30:52.884Z,101395.22
2023-08-15T10:33:22.836Z,101381.34
2023-08-15T10:36:07.992Z,101386.63
2023-08-15T10:38:40.945Z,101390.28
2023-08-15T10:41:14.478Z,101393.63
2023-08-15T10:43:48.305Z,101399.47
2023-08-15T10:46:18.155Z,101401.44
2023-08-15T10:49:01.745Z,101405.38
2023-08-15T10:51:33.338Z,101404.47
2023-08-15T10:54:02.564Z,101404.53
2023-08-15T10:56:31.814Z,101420.66
2023-08-15T10:59:06.805Z,101403.69
2023-08-15T11:01:35.012Z,101414.06
2023-08-15T11:04:04.637Z,101412.91
2023-08-15T11:06:32.713Z,101422.81
2023-08-15T11:09:01.070Z,101418.25
2023-08-15T11:11:28.908Z,101415.44
2023-08-15T11:13:59.201Z,101428.72
2023-08-15T11:16:28.400Z,101415.09
2023-08-15T11:18:58.689Z,101418.25
2023-08-15T11:21:30.285Z,101422.47
2023-08-15T11:24:00.391Z,101426.44
2023-08-15T11:26:28.452Z,101424.22
2023-08-15T11:28:56.224Z,101428.22
2023-08-15T11:31:24.452Z,101427.16
2023-08-15T11:33:54.083Z,101437.13
2023-08-15T11:36:23.585Z,101443.47
2023-08-15T11:38:51.472Z,101437.56
2023-08-15T11:41:20.298Z,101438.69
2023-08-15T11:43:49.382Z,101447.16
2023-08-15T11:46:17.281Z,101444.09
2023-08-15T11:48:46.726Z,101448.00
2023-08-15T11:51:22.338Z,101452.81
2023-08-15T11:53:51.495Z,101451.66
2023-08-15T11:56:19.338Z,101455.03
2023-08-15T11:58:47.586Z,101453.38
2023-08-15T12:01:15.667Z,101455.66
2023-08-15T12:03:43.506Z,101452.53
2023-08-15T12:06:13.944Z,101463.25
2023-08-15T12:08:47.024Z,101459.63
2023-08-15T12:11:20.253Z,101466.47
2023-08-15T12:13:48.224Z,101459.41
2023-08-15T12:16:16.121Z,101460.00
2023-08-15T12:18:44.031Z,101455.19
2023-08-15T12:21:14.058Z,101466.47
2023-08-15T12:23:44.702Z,101461.34
2023-08-15T12:26:12.596Z,101468.94
2023-08-15T12:28:40.459Z,101465.22
2023-08-15T12:31:09.496Z,101460.09
2023-08-15T12:36:08.259Z,101458.94
2023-08-15T12:38:36.066Z,101468.00
2023-08-15T12:41:08.258Z,101467.16
2023-08-15T12:43:36.114Z,101469.78
2023-08-15T12:46:05.270Z,101471.19
2023-08-15T12:48:33.177Z,101475.50
2023-08-15T12:51:01.232Z,101474.09
2023-08-15T12:53:29.108Z,101480.59
2023-08-15T12:55:57.000Z,101482.56
2023-08-15T12:58:26.126Z,101476.59
2023-08-15T13:00:54.073Z,101480.44
2023-08-15T13:03:21.931Z,101480.66
2023-08-15T13:05:50.650Z,101483.75
2023-08-15T13:08:20.374Z,101485.41
2023-08-15T13:10:48.852Z,101480.66
2023-08-15T13:13:16.704Z,101487.75
2023-08-15T13:15:45.820Z,101486.34
2023-08-15T13:18:13.603Z,101482.69
2023-08-15T13:20:41.491Z,101481.59
2023-08-15T13:23:09.622Z,101478.50
2023-08-15T13:25:37.963Z,101486.13
2023-08-15T13:28:06.759Z,101485.22
2023-08-15T13:30:34.585Z,101477.25
2023-08-15T13:33:04.485Z,101480.66
2023-08-15T13:35:32.841Z,101481.56
2023-08-15T13:38:00.631Z,101486.94
2023-08-15T13:40:28.331Z,101490.34
2023-08-15T13:42:56.176Z,101489.78
2023-08-15T13:45:24.123Z,101494.53
2023-08-15T13:47:51.959Z,101492.47
2023-08-15T13:50:21.232Z,101489.59
2023-08-15T13:52:49.047Z,101495.47
2023-08-15T13:55:17.426Z,101507.56
2023-08-15T13:57:45.239Z,101511.78
2023-08-15T14:00:13.778Z,101506.75
2023-08-15T14:02:41.783Z,101507.44
2023-08-15T14:05:10.434Z,101503.25
2023-08-15T14:07:39.601Z,101510.06
2023-08-15T14:10:08.265Z,101505.84
2023-08-15T14:12:36.236Z,101501.03
2023-08-15T14:15:04.232Z,101509.50
2023-08-15T14:17:31.992Z,101507.00
2023-08-15T14:19:59.702Z,101502.22
2023-08-15T14:22:28.042Z,101501.38
2023-08-15T14:24:57.153Z,101499.34
2023-08-15T14:27:25.002Z,101509.44
2023-08-15T14:29:52.927Z,101511.59
2023-08-15T14:32:21.147Z,101506.47
2023-08-15T14:34:50.554Z,101518.00
2023-08-15T14:37:18.321Z,101515.44
2023-08-15T14:39:46.351Z,101520.47
2023-08-15T14:42:15.662Z,101523.19
2023-08-15T14:44:43.402Z,101519.66
2023-08-15T14:47:11.341Z,101524.59
2023-08-15T14:49:39.150Z,101517.50
2023-08-15T14:52:07.365Z,101512.50
2023-08-15T14:54:36.775Z,101516.56
2023-08-15T14:57:05.202Z,101518.00
2023-08-15T14:59:34.452Z,101514.13
2023-08-15T15:02:02.998Z,101523.19
2023-08-15T15:04:31.213Z,101523.81
2023-08-15T15:06:59.017Z,101519.88
2023-08-15T15:09:26.921Z,101525.84
2023-08-15T15:11:54.698Z,101522.75
2023-08-15T15:14:22.838Z,101525.03
2023-08-15T15:16:51.988Z,101527.88
2023-08-15T15:19:19.784Z,101537.47
2023-08-15T15:21:48.640Z,101538.56
2023-08-15T15:24:16.701Z,101532.66
2023-08-15T15:26:45.396Z,101546.84
2023-08-15T15:29:13.530Z,101546.56
2023-08-15T15:31:41.445Z,101548.28
2023-08-15T15:34:10.840Z,101556.69
2023-08-15T15:36:38.928Z,101549.28
2023-08-15T15:39:06.712Z,101564.53
2023-08-15T15:41:34.718Z,101561.66
2023-08-15T15:44:02.447Z,101568.13
2023-08-15T15:46:37.872Z,101568.97
2023-08-15T15:49:11.024Z,101567.53
2023-08-15T15:51:39.487Z,101574.31
2023-08-15T15:54:08.115Z,101583.38
2023-08-15T15:56:36.097Z,101580.56
2023-08-15T15:59:06.564Z,101583.03
2023-08-15T16:01:34.763Z,101583.31
2023-08-15T16:04:02.988Z,101576.47
2023-08-15T16:06:32.878Z,101577.00
2023-08-15T16:09:00.654Z,101577.53
2023-08-15T16:11:28.441Z,101578.31
2023-08-15T16:13:56.274Z,101586.19
2023-08-15T16:16:24.088Z,101589.00
2023-08-15T16:18:51.947Z,101589.00
2023-08-15T16:21:21.800Z,101591.53
2023-08-15T16:23:51.811Z,101585.88
2023-08-15T16:26:20.522Z,101585.03
2023-08-15T16:28:48.861Z,101588.69
2023-08-15T16:31:16.980Z,101592.66
2023-08-15T16:33:44.906Z,101597.41
2023-08-15T16:36:12.663Z,101597.69
2023-08-15T16:38:40.921Z,101598.78
2023-08-15T16:41:10.057Z,101601.63
2023-08-15T16:43:38.401Z,101603.88
2023-08-15T16:46:06.340Z,101604.13
2023-08-15T16:48:35.581Z,101610.31
2023-08-15T16:51:03.621Z,101603.22
2023-08-15T16:53:31.515Z,101609.09
2023-08-15T16:55:59.335Z,101611.09
2023-08-15T16:58:28.473Z,101613.31
2023-08-15T17:00:56.312Z,101618.09
2023-08-15T17:03:24.703Z,101629.66
2023-08-15T17:05:52.589Z,101627.09
2023-08-15T17:08:20.542Z,101620.00
2023-08-15T17:10:48.301Z,101630.44
2023-08-15T17:13:16.068Z,101631.53
2023-08-15T17:15:47.353Z,101625.56
2023-08-15T17:18:15.110Z,101625.56
2023-08-15T17:20:43.029Z,101636.00
2023-08-15T17:23:11.349Z,101632.84
2023-08-15T17:25:39.219Z,101633.13
2023-08-15T17:28:08.133Z,101629.44
2023-08-15T17:30:36.377Z,101636.47
2023-08-15T17:33:06.957Z,101631.91
2023-08-15T17:35:34.756Z,101639.78
2023-08-15T17:38:02.550Z,101638.94
2023-08-15T17:40:30.376Z,101647.06
2023-08-15T17:42:58.263Z,101649.28
2023-08-15T17:45:26.353Z,101652.59
2023-08-15T17:47:54.133Z,101654.81
2023-08-15T17:50:23.467Z,101654.22
2023-08-15T17:52:51.561Z,101655.59
2023-08-15T17:55:19.335Z,101656.97
2023-08-15T17:57:48.239Z,101672.44
2023-08-15T18:00:17.510Z,101667.31
2023-08-15T18:02:45.708Z,101675.44
2023-08-15T18:05:15.576Z,101676.81
2023-08-15T18:07:44.787Z,101676.72
2023-08-15T18:10:12.679Z,101678.94
2023-08-15T18:12:40.470Z,101678.59
2023-08-15T18:15:11.282Z,101688.44
2023-08-15T18:17:39.556Z,101701.06
2023-08-15T18:20:08.295Z,101698.16
2023-08-15T18:22:38.825Z,101696.94
2023-08-15T18:25:09.372Z,101707.03
2023-08-15T18:27:37.654Z,101707.78
2023-08-15T18:30:06.757Z,101711.97
2023-08-15T18:32:34.679Z,101717.22
2023-08-15T18:35:02.808Z,101715.44
2023-08-15T18:37:30.676Z,101722.66
2023-08-15T18:39:58.419Z,101723.16
2023-08-15T18:42:27.539Z,101725.25
2023-08-15T18:44:55.259Z,101737.03
2023-08-15T18:47:23.038Z,101738.91
2023-08-15T18:49:50.779Z,101729.25
2023-08-15T18:52:18.499Z,101737.34
2023-08-15T18:54:46.365Z,101741.78
2023-08-15T18:57:14.221Z,101741.41
2023-08-15T18:59:43.721Z,101746.06
2023-08-15T19:02:11.508Z,101737.53
2023-08-15T19:04:39.360Z,101752.09
2023-08-15T19:07:07.249Z,101755.03
2023-08-15T19:09:35.009Z,101759.47
2023-08-15T19:12:03.252Z,101767.53
2023-08-15T19:14:31.089Z,101763.75
2023-08-15T19:17:00.171Z,101772.69
2023-08-15T19:19:28.085Z,101774.50
2023-08-15T19:21:55.853Z,101771.31
2023-08-15T19:24:23.763Z,101776.56
2023-08-15T19:26:51.611Z,101775.09
2023-08-15T19:29:19.334Z,101769.97
2023-08-15T19:31:47.213Z,101777.19
2023-08-15T19:34:17.696Z,101781.84
2023-08-15T19:36:45.403Z,101787.09
2023-08-15T19:39:13.364Z,101791.50
2023-08-15T19:41:41.710Z,101792.84
2023-08-15T19:44:09.489Z,101786.84
2023-08-15T19:46:37.866Z,101794.66
2023-08-15T19:49:06.791Z,101794.03
2023-08-15T19:51:35.894Z,101794.75
2023-08-15T19:54:03.805Z,101803.47
2023-08-15T19:56:31.594Z,101801.38
2023-08-15T19:58:59.334Z,101801.00
2023-08-15T20:01:27.195Z,101809.94
2023-08-15T20:03:54.971Z,101810.38
2023-08-15T20:06:22.672Z,101814.53
2023-08-15T20:08:51.785Z,101807.22
2023-08-15T20:11:19.520Z,101812.47
2023-08-15T20:13:47.267Z,101816.59
2023-08-15T20:16:15.296Z,101819.84
2023-08-15T20:18:43.197Z,101821.19
2023-08-15T20:21:10.950Z,101819.72
2023-08-15T20:23:39.657Z,101823.84
2023-08-15T20:26:09.353Z,101815.91
2023-08-15T20:28:37.400Z,101819.19
2023-08-15T20:31:05.830Z,101822.28
2023-08-15T20:33:32.638Z,101822.72
2023-08-15T20:36:00.361Z,101821.25
2023-08-15T20:38:28.964Z,101819.53
2023-08-15T20:40:56.992Z,101818.53
2023-08-15T20:43:26.163Z,101824.38
2023-08-15T20:45:54.049Z,101818.41
2023-08-15T20:48:23.016Z,101824.25
2023-08-15T20:50:50.825Z,101827.53
2023-08-15T20:53:18.541Z,101827.75
2023-08-15T20:55:46.380Z,101828.00
2023-08-15T20:58:14.111Z,101822.00
2023-08-15T21:00:44.981Z,101819.44
2023-08-15T21:03:14.782Z,101820.78
2023-08-15T21:05:43.590Z,101825.75
2023-08-15T21:08:11.287Z,101818.66
2023-08-15T21:10:39.238Z,101832.06
2023-08-15T21:13:07.247Z,101823.06
2023-08-15T21:15:35.799Z,101828.91
2023-08-15T21:18:05.352Z,101823.50
2023-08-15T21:20:33.126Z,101831.31
2023-08-15T21:23:00.893Z,101829.84
2023-08-15T21:25:28.650Z,101827.25
2023-08-15T21:27:56.469Z,101829.44
2023-08-15T21:30:24.309Z,101825.16
2023-08-15T21:32:52.201Z,101827.59
2023-08-15T21:35:21.343Z,101839.00
2023-08-15T21:37:49.182Z,101839.47
2023-08-15T21:40:17.083Z,101839.69
2023-08-15T21:42:44.818Z,101839.09
2023-08-15T21:45:12.686Z,101832.00
2023-08-15T21:47:40.685Z,101833.97
2023-08-15T21:50:10.546Z,101835.28
2023-08-15T21:52:39.656Z,101833.81
2023-08-15T21:55:08.314Z,101834.03
2023-08-15T21:57:36.131Z,101838.16
2023-08-15T22:00:05.533Z,101843.13
2023-08-15T22:02:40.093Z,101838.84
2023-08-15T22:05:09.850Z,101836.28
2023-08-15T22:07:39.485Z,101838.22
2023-08-15T22:10:09.469Z,101841.25
2023-08-15T22:12:37.959Z,101847.09
2023-08-15T22:15:06.972Z,101840.00
2023-08-15T22:17:45.546Z,101846.72
2023-08-15T22:20:14.806Z,101852.31
2023-08-15T22:22:44.302Z,101847.19
2023-08-15T22:25:12.165Z,101864.00
2023-08-15T22:27:40.013Z,101864.00
2023-08-15T22:30:10.051Z,101862.53
2023-08-15T22:32:38.215Z,101863.22
2023-08-15T22:35:06.829Z,101863.44
2023-08-15T22:37:34.667Z,101858.53
2023-08-15T22:40:05.107Z,101860.06
2023-08-15T22:42:33.861Z,101861.16
2023-08-15T22:45:01.656Z,101858.81
2023-08-15T22:47:29.520Z,101858.19
2023-08-15T22:49:57.373Z,101857.78
2023-08-15T22:52:25.183Z,101868.16
2023-08-15T22:54:53.431Z,101868.81
2023-08-15T22:57:22.657Z,101863.47
2023-08-15T22:59:50.597Z,101872.94
2023-08-15T23:02:18.386Z,101880.72
2023-08-15T23:04:46.339Z,101873.63
2023-08-15T23:07:14.460Z,101870.44
2023-08-15T23:09:42.222Z,101864.16
2023-08-15T23:12:10.256Z,101867.41
2023-08-15T23:14:39.346Z,101866.78
2023-08-15T23:17:07.239Z,101862.50
2023-08-15T23:19:34.983Z,101873.94
2023-08-15T23:22:04.069Z,101877.22
2023-08-15T23:24:31.861Z,101883.03
2023-08-15T23:27:00.646Z,101877.88
2023-08-15T23:29:28.773Z,101871.00
2023-08-15T23:31:59.716Z,101875.97
2023-08-15T23:34:27.845Z,101877.06
2023-08-15T23:36:55.795Z,101874.47
2023-08-15T23:39:23.654Z,101876.88
2023-08-15T23:41:51.549Z,101884.88
2023-08-15T23:44:19.774Z,101873.03
2023-08-15T23:46:48.619Z,101883.59
2023-08-15T23:49:18.569Z,101874.56
2023-08-15T23:51:48.784Z,101885.16
2023-08-15T23:54:16.830Z,101887.53
2023-08-15T23:56:44.570Z,101894.44
2023-08-15T23:59:12.385Z,101891.00
